sensor_id;sensor_type;location;lat;lon;timestamp;temperature;humidity
36552;DHT22;22559;54.176;12.102;2023-03-16T00:02:04;3.10;99.90
36552;DHT22;22559;54.176;12.102;2023-03-16T00:04:30;3.10;99.90
36552;DHT22;22559;54.176;12.102;2023-03-16T00:06:57;3.20;99.90
36552;DHT22;22559;54.176;12.102;2023-03-16T00:09:23;3.20;99.90
36552;DHT22;22559;54.176;12.102;2023-03-16T00:11:58;3.20;99.90
36552;DHT22;22559;54.176;12.102;2023-03-16T00:14:25;3.20;99.90
36552;DHT22;22559;54.176;12.102;2023-03-16T00:16:51;3.30;99.90
36552;DHT22;22559;54.176;12.102;2023-03-16T00:19:16;3.30;99.90
36552;DHT22;22559;54.176;12.102;2023-03-16T00:21:42;3.20;99.90
36552;DHT22;22559;54.176;12.102;2023-03-16T00:24:08;3.30;99.90
36552;DHT22;22559;54.176;12.102;2023-03-16T00:26:33;3.30;99.90
36552;DHT22;22559;54.176;12.102;2023-03-16T00:28:59;3.30;99.90
36552;DHT22;22559;54.176;12.102;2023-03-16T00:31:26;3.30;99.90
36552;DHT22;22559;54.176;12.102;2023-03-16T00:33:51;3.30;99.90
36552;DHT22;22559;54.176;12.102;2023-03-16T00:36:17;3.40;99.90
36552;DHT22;22559;54.176;12.102;2023-03-16T00:38:43;3.40;99.90
36552;DHT22;22559;54.176;12.102;2023-03-16T00:41:14;3.30;99.90
36552;DHT22;22559;54.176;12.102;2023-03-16T00:43:41;3.30;99.90
36552;DHT22;22559;54.176;12.102;2023-03-16T00:46:14;3.30;99.90
36552;DHT22;22559;54.176;12.102;2023-03-16T00:48:42;3.30;99.90
36552;DHT22;22559;54.176;12.102;2023-03-16T00:51:14;3.30;99.90
36552;DHT22;22559;54.176;12.102;2023-03-16T00:53:42;3.30;99.90
36552;DHT22;22559;54.176;12.102;2023-03-16T00:56:09;3.30;99.90
36552;DHT22;22559;54.176;12.102;2023-03-16T00:58:36;3.30;99.90
36552;DHT22;22559;54.176;12.102;2023-03-16T01:01:09;3.30;99.90
36552;DHT22;22559;54.176;12.102;2023-03-16T01:03:34;3.30;99.90
36552;DHT22;22559;54.176;12.102;2023-03-16T01:06:12;3.30;99.90
36552;DHT22;22559;54.176;12.102;2023-03-16T01:08:39;3.30;99.90
36552;DHT22;22559;54.176;12.102;2023-03-16T01:11:07;3.30;99.90
36552;DHT22;22559;54.176;12.102;2023-03-16T01:13:35;3.30;99.90
36552;DHT22;22559;54.176;12.102;2023-03-16T01:16:01;3.30;99.90
36552;DHT22;22559;54.176;12.102;2023-03-16T01:18:29;3.30;99.90
36552;DHT22;22559;54.176;12.102;2023-03-16T01:20:59;3.30;99.90
36552;DHT22;22559;54.176;12.102;2023-03-16T01:23:26;3.30;99.90
36552;DHT22;22559;54.176;12.102;2023-03-16T01:25:55;3.10;99.90
36552;DHT22;22559;54.176;12.102;2023-03-16T01:28:22;3.00;99.90
36552;DHT22;22559;54.176;12.102;2023-03-16T01:30:53;2.90;99.90
36552;DHT22;22559;54.176;12.102;2023-03-16T01:33:24;2.80;99.90
36552;DHT22;22559;54.176;12.102;2023-03-16T01:35:57;2.80;99.90
36552;DHT22;22559;54.176;12.102;2023-03-16T01:38:23;2.70;99.90
36552;DHT22;22559;54.176;12.102;2023-03-16T01:40:50;2.60;99.90
36552;DHT22;22559;54.176;12.102;2023-03-16T01:43:20;2.60;99.90
36552;DHT22;22559;54.176;12.102;2023-03-16T01:54:05;2.50;99.90
36552;DHT22;22559;54.176;12.102;2023-03-16T01:56:39;2.50;99.90
36552;DHT22;22559;54.176;12.102;2023-03-16T01:59:11;2.40;99.90
36552;DHT22;22559;54.176;12.102;2023-03-16T02:01:38;2.40;99.90
36552;DHT22;22559;54.176;12.102;2023-03-16T02:04:18;2.40;99.90
36552;DHT22;22559;54.176;12.102;2023-03-16T02:06:47;2.40;99.90
36552;DHT22;22559;54.176;12.102;2023-03-16T02:09:15;2.40;99.90
36552;DHT22;22559;54.176;12.102;2023-03-16T02:11:41;2.40;99.90
36552;DHT22;22559;54.176;12.102;2023-03-16T02:14:09;2.40;99.90
36552;DHT22;22559;54.176;12.102;2023-03-16T02:16:37;2.30;99.90
36552;DHT22;22559;54.176;12.102;2023-03-16T02:19:07;2.30;99.90
36552;DHT22;22559;54.176;12.102;2023-03-16T02:21:47;2.30;99.90
36552;DHT22;22559;54.176;12.102;2023-03-16T02:24:19;2.30;99.90
36552;DHT22;22559;54.176;12.102;2023-03-16T02:26:50;2.40;99.90
36552;DHT22;22559;54.176;12.102;2023-03-16T02:31:51;2.40;99.90
36552;DHT22;22559;54.176;12.102;2023-03-16T02:34:17;2.40;99.90
36552;DHT22;22559;54.176;12.102;2023-03-16T02:36:45;2.40;99.90
36552;DHT22;22559;54.176;12.102;2023-03-16T02:39:12;2.30;99.90
36552;DHT22;22559;54.176;12.102;2023-03-16T02:41:39;2.30;99.90
36552;DHT22;22559;54.176;12.102;2023-03-16T02:44:12;2.30;99.90
36552;DHT22;22559;54.176;12.102;2023-03-16T02:46:41;2.30;99.90
36552;DHT22;22559;54.176;12.102;2023-03-16T02:51:49;2.20;99.90
36552;DHT22;22559;54.176;12.102;2023-03-16T02:54:15;2.30;99.90
36552;DHT22;22559;54.176;12.102;2023-03-16T02:56:41;2.30;99.90
36552;DHT22;22559;54.176;12.102;2023-03-16T02:59:06;2.30;99.90
36552;DHT22;22559;54.176;12.102;2023-03-16T03:01:32;2.30;99.90
36552;DHT22;22559;54.176;12.102;2023-03-16T03:04:00;2.30;99.90
36552;DHT22;22559;54.176;12.102;2023-03-16T03:06:26;2.40;99.90
36552;DHT22;22559;54.176;12.102;2023-03-16T03:08:52;2.40;99.90
36552;DHT22;22559;54.176;12.102;2023-03-16T03:11:17;2.40;99.90
36552;DHT22;22559;54.176;12.102;2023-03-16T03:13:44;2.50;99.90
36552;DHT22;22559;54.176;12.102;2023-03-16T03:16:11;2.60;99.90
36552;DHT22;22559;54.176;12.102;2023-03-16T03:18:37;2.70;99.90
36552;DHT22;22559;54.176;12.102;2023-03-16T03:21:03;2.80;99.90
36552;DHT22;22559;54.176;12.102;2023-03-16T03:23:28;2.90;99.90
36552;DHT22;22559;54.176;12.102;2023-03-16T03:25:58;2.80;99.90
36552;DHT22;22559;54.176;12.102;2023-03-16T03:28:24;2.80;99.90
36552;DHT22;22559;54.176;12.102;2023-03-16T03:30:50;2.80;99.90
36552;DHT22;22559;54.176;12.102;2023-03-16T03:33:16;2.90;99.90
36552;DHT22;22559;54.176;12.102;2023-03-16T03:35:42;3.00;99.90
36552;DHT22;22559;54.176;12.102;2023-03-16T03:38:24;2.90;99.90
36552;DHT22;22559;54.176;12.102;2023-03-16T03:40:51;2.80;99.90
36552;DHT22;22559;54.176;12.102;2023-03-16T03:43:16;2.70;99.90
36552;DHT22;22559;54.176;12.102;2023-03-16T03:45:42;2.80;99.90
36552;DHT22;22559;54.176;12.102;2023-03-16T03:48:08;2.80;99.90
36552;DHT22;22559;54.176;12.102;2023-03-16T03:50:33;2.90;99.90
36552;DHT22;22559;54.176;12.102;2023-03-16T03:52:59;2.90;99.90
36552;DHT22;22559;54.176;12.102;2023-03-16T03:55:25;2.80;99.90
36552;DHT22;22559;54.176;12.102;2023-03-16T03:57:50;2.80;99.90
36552;DHT22;22559;54.176;12.102;2023-03-16T04:00:16;2.70;99.90
36552;DHT22;22559;54.176;12.102;2023-03-16T04:02:45;2.50;99.90
36552;DHT22;22559;54.176;12.102;2023-03-16T04:05:11;2.40;99.90
36552;DHT22;22559;54.176;12.102;2023-03-16T04:07:37;2.40;99.90
36552;DHT22;22559;54.176;12.102;2023-03-16T04:10:04;2.30;99.90
36552;DHT22;22559;54.176;12.102;2023-03-16T04:12:30;2.20;99.90
36552;DHT22;22559;54.176;12.102;2023-03-16T04:14:55;2.10;99.90
36552;DHT22;22559;54.176;12.102;2023-03-16T04:17:21;2.00;99.90
36552;DHT22;22559;54.176;12.102;2023-03-16T04:19:48;2.00;99.90
36552;DHT22;22559;54.176;12.102;2023-03-16T04:22:14;1.90;99.90
36552;DHT22;22559;54.176;12.102;2023-03-16T04:24:40;1.80;99.90
36552;DHT22;22559;54.176;12.102;2023-03-16T04:27:08;1.80;99.90
36552;DHT22;22559;54.176;12.102;2023-03-16T04:29:35;1.80;99.90
36552;DHT22;22559;54.176;12.102;2023-03-16T04:32:01;1.80;99.90
36552;DHT22;22559;54.176;12.102;2023-03-16T04:34:27;1.80;99.90
36552;DHT22;22559;54.176;12.102;2023-03-16T04:36:53;1.80;99.90
36552;DHT22;22559;54.176;12.102;2023-03-16T04:39:20;1.80;99.90
36552;DHT22;22559;54.176;12.102;2023-03-16T04:41:45;1.70;99.90
36552;DHT22;22559;54.176;12.102;2023-03-16T04:44:11;1.80;99.90
36552;DHT22;22559;54.176;12.102;2023-03-16T04:46:37;1.70;99.90
36552;DHT22;22559;54.176;12.102;2023-03-16T04:49:02;1.70;99.90
36552;DHT22;22559;54.176;12.102;2023-03-16T04:51:28;1.60;99.90
36552;DHT22;22559;54.176;12.102;2023-03-16T04:53:54;1.60;99.90
36552;DHT22;22559;54.176;12.102;2023-03-16T04:56:20;1.40;99.90
36552;DHT22;22559;54.176;12.102;2023-03-16T04:58:47;1.50;99.90
36552;DHT22;22559;54.176;12.102;2023-03-16T05:01:14;1.40;99.90
36552;DHT22;22559;54.176;12.102;2023-03-16T05:03:41;1.40;99.90
36552;DHT22;22559;54.176;12.102;2023-03-16T05:06:08;1.40;99.90
36552;DHT22;22559;54.176;12.102;2023-03-16T05:08:35;1.30;99.90
36552;DHT22;22559;54.176;12.102;2023-03-16T05:11:00;1.30;99.90
36552;DHT22;22559;54.176;12.102;2023-03-16T05:13:26;1.30;99.90
36552;DHT22;22559;54.176;12.102;2023-03-16T05:15:52;1.30;99.90
36552;DHT22;22559;54.176;12.102;2023-03-16T05:18:18;1.30;99.90
36552;DHT22;22559;54.176;12.102;2023-03-16T05:20:44;1.30;99.90
36552;DHT22;22559;54.176;12.102;2023-03-16T05:23:10;1.30;99.90
36552;DHT22;22559;54.176;12.102;2023-03-16T05:25:36;1.30;99.90
36552;DHT22;22559;54.176;12.102;2023-03-16T05:28:02;1.40;99.90
36552;DHT22;22559;54.176;12.102;2023-03-16T05:30:28;1.40;99.90
36552;DHT22;22559;54.176;12.102;2023-03-16T05:32:55;1.40;99.90
36552;DHT22;22559;54.176;12.102;2023-03-16T05:35:22;1.40;99.90
36552;DHT22;22559;54.176;12.102;2023-03-16T05:37:48;1.40;99.90
36552;DHT22;22559;54.176;12.102;2023-03-16T05:40:14;1.40;99.90
36552;DHT22;22559;54.176;12.102;2023-03-16T05:42:47;1.30;99.90
36552;DHT22;22559;54.176;12.102;2023-03-16T05:45:14;1.40;99.90
36552;DHT22;22559;54.176;12.102;2023-03-16T05:47:40;1.40;99.90
36552;DHT22;22559;54.176;12.102;2023-03-16T05:50:09;1.40;99.90
36552;DHT22;22559;54.176;12.102;2023-03-16T05:52:37;1.40;99.90
36552;DHT22;22559;54.176;12.102;2023-03-16T05:55:04;1.50;99.90
36552;DHT22;22559;54.176;12.102;2023-03-16T05:57:30;1.60;99.90
36552;DHT22;22559;54.176;12.102;2023-03-16T05:59:56;1.60;99.90
36552;DHT22;22559;54.176;12.102;2023-03-16T06:02:22;1.70;99.90
36552;DHT22;22559;54.176;12.102;2023-03-16T06:04:47;1.60;99.90
36552;DHT22;22559;54.176;12.102;2023-03-16T06:07:13;1.70;99.90
36552;DHT22;22559;54.176;12.102;2023-03-16T06:09:39;1.60;99.90
36552;DHT22;22559;54.176;12.102;2023-03-16T06:12:04;1.70;99.90
36552;DHT22;22559;54.176;12.102;2023-03-16T06:14:30;1.60;99.90
36552;DHT22;22559;54.176;12.102;2023-03-16T06:16:55;1.70;99.90
36552;DHT22;22559;54.176;12.102;2023-03-16T06:19:21;1.80;99.90
36552;DHT22;22559;54.176;12.102;2023-03-16T06:21:47;1.90;99.90
36552;DHT22;22559;54.176;12.102;2023-03-16T06:24:12;2.10;99.90
36552;DHT22;22559;54.176;12.102;2023-03-16T06:26:38;2.10;99.90
36552;DHT22;22559;54.176;12.102;2023-03-16T06:29:05;2.20;99.90
36552;DHT22;22559;54.176;12.102;2023-03-16T06:31:30;2.30;99.90
36552;DHT22;22559;54.176;12.102;2023-03-16T06:33:58;2.50;99.90
36552;DHT22;22559;54.176;12.102;2023-03-16T06:36:24;2.60;99.90
36552;DHT22;22559;54.176;12.102;2023-03-16T06:38:50;2.60;99.90
36552;DHT22;22559;54.176;12.102;2023-03-16T06:41:16;2.60;99.90
36552;DHT22;22559;54.176;12.102;2023-03-16T06:43:41;2.60;99.90
36552;DHT22;22559;54.176;12.102;2023-03-16T06:46:07;2.80;99.90
36552;DHT22;22559;54.176;12.102;2023-03-16T06:48:33;3.00;99.90
36552;DHT22;22559;54.176;12.102;2023-03-16T06:50:59;3.20;99.90
36552;DHT22;22559;54.176;12.102;2023-03-16T06:53:25;3.20;99.90
36552;DHT22;22559;54.176;12.102;2023-03-16T06:55:50;3.40;99.90
36552;DHT22;22559;54.176;12.102;2023-03-16T06:58:16;3.50;99.90
36552;DHT22;22559;54.176;12.102;2023-03-16T07:00:42;3.80;99.90
36552;DHT22;22559;54.176;12.102;2023-03-16T07:03:07;3.90;99.90
36552;DHT22;22559;54.176;12.102;2023-03-16T07:05:33;4.00;99.90
36552;DHT22;22559;54.176;12.102;2023-03-16T07:07:59;3.90;99.90
36552;DHT22;22559;54.176;12.102;2023-03-16T07:10:24;4.00;99.90
36552;DHT22;22559;54.176;12.102;2023-03-16T07:12:50;4.10;99.90
36552;DHT22;22559;54.176;12.102;2023-03-16T07:15:16;4.20;99.90
36552;DHT22;22559;54.176;12.102;2023-03-16T07:17:41;4.40;99.90
36552;DHT22;22559;54.176;12.102;2023-03-16T07:20:08;4.50;99.90
36552;DHT22;22559;54.176;12.102;2023-03-16T07:22:35;4.60;99.90
36552;DHT22;22559;54.176;12.102;2023-03-16T07:25:01;4.60;99.90
36552;DHT22;22559;54.176;12.102;2023-03-16T07:27:27;4.40;99.90
36552;DHT22;22559;54.176;12.102;2023-03-16T07:29:54;4.40;99.90
36552;DHT22;22559;54.176;12.102;2023-03-16T07:32:20;4.40;99.90
36552;DHT22;22559;54.176;12.102;2023-03-16T07:34:46;4.60;99.90
36552;DHT22;22559;54.176;12.102;2023-03-16T07:37:12;4.70;99.90
36552;DHT22;22559;54.176;12.102;2023-03-16T07:39:38;4.90;99.90
36552;DHT22;22559;54.176;12.102;2023-03-16T07:42:09;5.10;99.90
36552;DHT22;22559;54.176;12.102;2023-03-16T07:44:35;5.20;99.90
36552;DHT22;22559;54.176;12.102;2023-03-16T07:47:00;5.50;99.90
36552;DHT22;22559;54.176;12.102;2023-03-16T07:49:26;5.70;99.90
36552;DHT22;22559;54.176;12.102;2023-03-16T07:51:52;5.80;99.90
36552;DHT22;22559;54.176;12.102;2023-03-16T07:54:18;6.00;99.90
36552;DHT22;22559;54.176;12.102;2023-03-16T07:56:44;6.40;99.90
36552;DHT22;22559;54.176;12.102;2023-03-16T07:59:10;6.60;99.90
36552;DHT22;22559;54.176;12.102;2023-03-16T08:01:36;6.80;99.90
36552;DHT22;22559;54.176;12.102;2023-03-16T08:04:02;6.70;99.90
36552;DHT22;22559;54.176;12.102;2023-03-16T08:06:28;6.80;99.90
36552;DHT22;22559;54.176;12.102;2023-03-16T08:08:53;7.00;99.90
36552;DHT22;22559;54.176;12.102;2023-03-16T08:11:19;7.30;99.90
36552;DHT22;22559;54.176;12.102;2023-03-16T08:13:51;7.50;99.90
36552;DHT22;22559;54.176;12.102;2023-03-16T08:16:20;7.90;99.90
36552;DHT22;22559;54.176;12.102;2023-03-16T08:18:46;8.10;99.90
36552;DHT22;22559;54.176;12.102;2023-03-16T08:21:13;8.30;99.90
36552;DHT22;22559;54.176;12.102;2023-03-16T08:23:39;8.50;99.90
36552;DHT22;22559;54.176;12.102;2023-03-16T08:26:05;8.60;99.90
36552;DHT22;22559;54.176;12.102;2023-03-16T08:28:34;8.70;99.90
36552;DHT22;22559;54.176;12.102;2023-03-16T08:31:00;9.10;99.90
36552;DHT22;22559;54.176;12.102;2023-03-16T08:33:26;9.50;99.90
36552;DHT22;22559;54.176;12.102;2023-03-16T08:35:52;9.80;99.90
36552;DHT22;22559;54.176;12.102;2023-03-16T08:38:18;10.10;99.90
36552;DHT22;22559;54.176;12.102;2023-03-16T08:40:44;10.10;99.90
36552;DHT22;22559;54.176;12.102;2023-03-16T08:43:14;10.30;99.90
36552;DHT22;22559;54.176;12.102;2023-03-16T08:45:40;10.30;99.90
36552;DHT22;22559;54.176;12.102;2023-03-16T08:48:07;10.20;99.90
36552;DHT22;22559;54.176;12.102;2023-03-16T08:50:32;10.00;99.90
36552;DHT22;22559;54.176;12.102;2023-03-16T08:52:58;10.00;99.90
36552;DHT22;22559;54.176;12.102;2023-03-16T08:55:25;10.20;99.90
36552;DHT22;22559;54.176;12.102;2023-03-16T08:57:51;10.40;99.90
36552;DHT22;22559;54.176;12.102;2023-03-16T09:00:16;10.50;99.90
36552;DHT22;22559;54.176;12.102;2023-03-16T09:02:43;10.60;99.90
36552;DHT22;22559;54.176;12.102;2023-03-16T09:05:10;10.70;99.90
36552;DHT22;22559;54.176;12.102;2023-03-16T09:07:37;10.70;99.90
36552;DHT22;22559;54.176;12.102;2023-03-16T09:10:05;10.90;99.90
36552;DHT22;22559;54.176;12.102;2023-03-16T09:12:33;11.10;99.90
36552;DHT22;22559;54.176;12.102;2023-03-16T09:14:59;11.00;99.90
36552;DHT22;22559;54.176;12.102;2023-03-16T09:17:24;10.90;99.90
36552;DHT22;22559;54.176;12.102;2023-03-16T09:19:51;11.30;99.90
36552;DHT22;22559;54.176;12.102;2023-03-16T09:22:18;11.60;99.90
36552;DHT22;22559;54.176;12.102;2023-03-16T09:24:47;11.70;99.90
36552;DHT22;22559;54.176;12.102;2023-03-16T09:27:14;11.80;99.90
36552;DHT22;22559;54.176;12.102;2023-03-16T09:29:41;11.80;99.90
36552;DHT22;22559;54.176;12.102;2023-03-16T09:32:08;11.80;99.90
36552;DHT22;22559;54.176;12.102;2023-03-16T09:34:33;11.70;99.90
36552;DHT22;22559;54.176;12.102;2023-03-16T09:36:59;11.70;99.90
36552;DHT22;22559;54.176;12.102;2023-03-16T09:39:26;11.70;99.90
36552;DHT22;22559;54.176;12.102;2023-03-16T09:47:11;11.60;99.90
36552;DHT22;22559;54.176;12.102;2023-03-16T09:49:58;11.20;99.90
36552;DHT22;22559;54.176;12.102;2023-03-16T09:52:34;11.00;99.90
36552;DHT22;22559;54.176;12.102;2023-03-16T09:55:30;10.70;99.90
36552;DHT22;22559;54.176;12.102;2023-03-16T09:58:17;10.80;99.90
36552;DHT22;22559;54.176;12.102;2023-03-16T10:04:14;11.10;99.90
36552;DHT22;22559;54.176;12.102;2023-03-16T10:09:46;11.50;99.90
36552;DHT22;22559;54.176;12.102;2023-03-16T10:12:15;11.30;99.90
36552;DHT22;22559;54.176;12.102;2023-03-16T10:15:24;11.40;99.90
36552;DHT22;22559;54.176;12.102;2023-03-16T10:17:36;11.50;99.90
36552;DHT22;22559;54.176;12.102;2023-03-16T10:20:06;11.80;99.90
36552;DHT22;22559;54.176;12.102;2023-03-16T10:22:42;11.60;99.90
36552;DHT22;22559;54.176;12.102;2023-03-16T10:27:49;11.60;99.90
36552;DHT22;22559;54.176;12.102;2023-03-16T10:32:54;11.90;99.90
36552;DHT22;22559;54.176;12.102;2023-03-16T10:38:40;11.50;99.90
36552;DHT22;22559;54.176;12.102;2023-03-16T10:43:49;11.80;99.90
36552;DHT22;22559;54.176;12.102;2023-03-16T10:46:16;12.20;99.90
36552;DHT22;22559;54.176;12.102;2023-03-16T10:48:47;12.50;99.90
36552;DHT22;22559;54.176;12.102;2023-03-16T10:51:23;12.20;99.90
36552;DHT22;22559;54.176;12.102;2023-03-16T10:53:50;12.20;99.90
36552;DHT22;22559;54.176;12.102;2023-03-16T10:56:23;12.00;99.90
36552;DHT22;22559;54.176;12.102;2023-03-16T10:58:50;12.20;99.90
36552;DHT22;22559;54.176;12.102;2023-03-16T11:01:26;12.20;99.90
36552;DHT22;22559;54.176;12.102;2023-03-16T11:03:54;12.10;99.90
36552;DHT22;22559;54.176;12.102;2023-03-16T11:06:29;12.10;99.90
36552;DHT22;22559;54.176;12.102;2023-03-16T11:09:13;11.80;99.90
36552;DHT22;22559;54.176;12.102;2023-03-16T11:11:39;11.80;99.90
36552;DHT22;22559;54.176;12.102;2023-03-16T11:14:12;11.70;99.90
36552;DHT22;22559;54.176;12.102;2023-03-16T11:16:42;11.80;99.90
36552;DHT22;22559;54.176;12.102;2023-03-16T11:22:20;12.20;99.90
36552;DHT22;22559;54.176;12.102;2023-03-16T11:25:01;12.00;99.90
36552;DHT22;22559;54.176;12.102;2023-03-16T11:27:50;11.90;99.90
36552;DHT22;22559;54.176;12.102;2023-03-16T11:33:11;11.70;99.90
36552;DHT22;22559;54.176;12.102;2023-03-16T11:39:05;12.10;99.90
36552;DHT22;22559;54.176;12.102;2023-03-16T11:42:12;12.10;99.90
36552;DHT22;22559;54.176;12.102;2023-03-16T11:45:08;12.40;99.90
36552;DHT22;22559;54.176;12.102;2023-03-16T11:51:04;12.80;99.90
36552;DHT22;22559;54.176;12.102;2023-03-16T11:58:56;13.30;99.90
36552;DHT22;22559;54.176;12.102;2023-03-16T12:12:39;13.10;99.90
36552;DHT22;22559;54.176;12.102;2023-03-16T12:17:34;12.50;99.90
36552;DHT22;22559;54.176;12.102;2023-03-16T12:20:06;12.60;99.90
36552;DHT22;22559;54.176;12.102;2023-03-16T12:22:44;12.80;99.90
36552;DHT22;22559;54.176;12.102;2023-03-16T12:25:19;13.30;99.90
36552;DHT22;22559;54.176;12.102;2023-03-16T12:27:48;13.70;99.90
36552;DHT22;22559;54.176;12.102;2023-03-16T12:38:43;13.20;99.90
36552;DHT22;22559;54.176;12.102;2023-03-16T12:49:18;12.20;99.90
36552;DHT22;22559;54.176;12.102;2023-03-16T12:51:45;11.80;99.90
36552;DHT22;22559;54.176;12.102;2023-03-16T12:54:20;11.80;99.90
36552;DHT22;22559;54.176;12.102;2023-03-16T12:56:47;11.80;99.90
36552;DHT22;22559;54.176;12.102;2023-03-16T12:59:19;11.90;99.90
36552;DHT22;22559;54.176;12.102;2023-03-16T13:01:49;12.00;99.90
36552;DHT22;22559;54.176;12.102;2023-03-16T13:04:16;11.90;99.90
36552;DHT22;22559;54.176;12.102;2023-03-16T13:06:49;12.10;99.90
36552;DHT22;22559;54.176;12.102;2023-03-16T13:09:22;12.10;99.90
36552;DHT22;22559;54.176;12.102;2023-03-16T13:11:49;12.20;99.90
36552;DHT22;22559;54.176;12.102;2023-03-16T13:14:40;12.50;99.90
36552;DHT22;22559;54.176;12.102;2023-03-16T13:19:43;13.00;99.90
36552;DHT22;22559;54.176;12.102;2023-03-16T13:25:38;12.00;99.90
36552;DHT22;22559;54.176;12.102;2023-03-16T13:27:48;12.10;99.90
36552;DHT22;22559;54.176;12.102;2023-03-16T13:30:28;12.00;99.90
36552;DHT22;22559;54.176;12.102;2023-03-16T13:32:59;11.90;99.90
36552;DHT22;22559;54.176;12.102;2023-03-16T13:35:28;11.90;99.90
36552;DHT22;22559;54.176;12.102;2023-03-16T13:38:04;12.00;99.90
36552;DHT22;22559;54.176;12.102;2023-03-16T13:40:30;12.20;99.90
36552;DHT22;22559;54.176;12.102;2023-03-16T13:42:57;12.20;99.90
36552;DHT22;22559;54.176;12.102;2023-03-16T13:45:29;12.10;99.90
36552;DHT22;22559;54.176;12.102;2023-03-16T13:47:57;12.10;99.90
36552;DHT22;22559;54.176;12.102;2023-03-16T13:50:23;12.00;99.90
36552;DHT22;22559;54.176;12.102;2023-03-16T13:53:00;11.90;99.90
36552;DHT22;22559;54.176;12.102;2023-03-16T13:55:34;11.90;99.90
36552;DHT22;22559;54.176;12.102;2023-03-16T13:58:01;11.90;99.90
36552;DHT22;22559;54.176;12.102;2023-03-16T14:00:34;11.70;99.90
36552;DHT22;22559;54.176;12.102;2023-03-16T14:03:14;11.70;99.90
36552;DHT22;22559;54.176;12.102;2023-03-16T14:05:42;11.50;99.90
36552;DHT22;22559;54.176;12.102;2023-03-16T14:08:17;11.50;99.90
36552;DHT22;22559;54.176;12.102;2023-03-16T14:10:44;11.50;99.90
36552;DHT22;22559;54.176;12.102;2023-03-16T14:15:48;12.00;99.90
36552;DHT22;22559;54.176;12.102;2023-03-16T14:18:21;12.00;99.90
36552;DHT22;22559;54.176;12.102;2023-03-16T14:20:53;12.00;99.90
36552;DHT22;22559;54.176;12.102;2023-03-16T14:25:48;12.30;99.90
36552;DHT22;22559;54.176;12.102;2023-03-16T14:28:15;12.30;99.90
36552;DHT22;22559;54.176;12.102;2023-03-16T14:30:52;12.30;99.90
36552;DHT22;22559;54.176;12.102;2023-03-16T14:33:31;12.30;99.90
36552;DHT22;22559;54.176;12.102;2023-03-16T14:35:59;12.10;99.90
36552;DHT22;22559;54.176;12.102;2023-03-16T14:38:33;12.00;99.90
36552;DHT22;22559;54.176;12.102;2023-03-16T14:43:43;12.00;99.90
36552;DHT22;22559;54.176;12.102;2023-03-16T14:46:14;12.00;99.90
36552;DHT22;22559;54.176;12.102;2023-03-16T14:48:40;12.00;99.90
36552;DHT22;22559;54.176;12.102;2023-03-16T14:51:11;12.10;99.90
36552;DHT22;22559;54.176;12.102;2023-03-16T14:53:37;11.90;99.90
36552;DHT22;22559;54.176;12.102;2023-03-16T14:56:08;12.10;99.90
36552;DHT22;22559;54.176;12.102;2023-03-16T14:58:34;12.00;99.90
36552;DHT22;22559;54.176;12.102;2023-03-16T15:01:00;11.90;99.90
36552;DHT22;22559;54.176;12.102;2023-03-16T15:03:32;11.90;99.90
36552;DHT22;22559;54.176;12.102;2023-03-16T15:05:58;11.80;99.90
36552;DHT22;22559;54.176;12.102;2023-03-16T15:08:28;11.70;99.90
36552;DHT22;22559;54.176;12.102;2023-03-16T15:11:04;11.60;99.90
36552;DHT22;22559;54.176;12.102;2023-03-16T15:13:32;11.50;99.90
36552;DHT22;22559;54.176;12.102;2023-03-16T15:16:04;11.40;99.90
36552;DHT22;22559;54.176;12.102;2023-03-16T15:18:33;11.20;99.90
36552;DHT22;22559;54.176;12.102;2023-03-16T15:21:00;11.20;99.90
36552;DHT22;22559;54.176;12.102;2023-03-16T15:23:28;11.10;99.90
36552;DHT22;22559;54.176;12.102;2023-03-16T15:25:53;11.20;99.90
36552;DHT22;22559;54.176;12.102;2023-03-16T15:28:26;11.10;99.90
36552;DHT22;22559;54.176;12.102;2023-03-16T15:30:57;11.00;99.90
36552;DHT22;22559;54.176;12.102;2023-03-16T15:33:23;10.80;99.90
36552;DHT22;22559;54.176;12.102;2023-03-16T15:35:51;10.60;99.90
36552;DHT22;22559;54.176;12.102;2023-03-16T15:38:27;10.50;99.90
36552;DHT22;22559;54.176;12.102;2023-03-16T15:40:53;10.40;99.90
36552;DHT22;22559;54.176;12.102;2023-03-16T15:43:21;10.40;99.90
36552;DHT22;22559;54.176;12.102;2023-03-16T15:45:48;10.50;99.90
36552;DHT22;22559;54.176;12.102;2023-03-16T15:48:14;10.40;99.90
36552;DHT22;22559;54.176;12.102;2023-03-16T15:50:45;10.50;99.90
36552;DHT22;22559;54.176;12.102;2023-03-16T15:53:50;10.40;99.90
36552;DHT22;22559;54.176;12.102;2023-03-16T15:56:19;10.10;99.90
36552;DHT22;22559;54.176;12.102;2023-03-16T15:58:47;10.00;99.90
36552;DHT22;22559;54.176;12.102;2023-03-16T16:01:21;9.80;99.90
36552;DHT22;22559;54.176;12.102;2023-03-16T16:03:47;9.50;99.90
36552;DHT22;22559;54.176;12.102;2023-03-16T16:06:13;9.50;99.90
36552;DHT22;22559;54.176;12.102;2023-03-16T16:08:39;9.30;99.90
36552;DHT22;22559;54.176;12.102;2023-03-16T16:11:13;9.20;99.90
36552;DHT22;22559;54.176;12.102;2023-03-16T16:13:40;9.20;99.90
36552;DHT22;22559;54.176;12.102;2023-03-16T16:16:11;9.10;99.90
36552;DHT22;22559;54.176;12.102;2023-03-16T16:18:38;9.10;99.90
36552;DHT22;22559;54.176;12.102;2023-03-16T16:21:05;9.10;99.90
36552;DHT22;22559;54.176;12.102;2023-03-16T16:23:31;9.00;99.90
36552;DHT22;22559;54.176;12.102;2023-03-16T16:26:04;9.00;99.90
36552;DHT22;22559;54.176;12.102;2023-03-16T16:28:32;8.90;99.90
36552;DHT22;22559;54.176;12.102;2023-03-16T16:30:58;8.90;99.90
36552;DHT22;22559;54.176;12.102;2023-03-16T16:33:34;8.80;99.90
36552;DHT22;22559;54.176;12.102;2023-03-16T16:36:02;8.80;99.90
36552;DHT22;22559;54.176;12.102;2023-03-16T16:38:30;8.80;99.90
36552;DHT22;22559;54.176;12.102;2023-03-16T16:40:59;8.80;99.90
36552;DHT22;22559;54.176;12.102;2023-03-16T16:43:36;8.70;99.90
36552;DHT22;22559;54.176;12.102;2023-03-16T16:46:05;8.70;99.90
36552;DHT22;22559;54.176;12.102;2023-03-16T16:48:34;8.70;99.90
36552;DHT22;22559;54.176;12.102;2023-03-16T16:51:01;8.80;99.90
36552;DHT22;22559;54.176;12.102;2023-03-16T16:53:27;8.80;99.90
36552;DHT22;22559;54.176;12.102;2023-03-16T16:55:54;8.70;99.90
36552;DHT22;22559;54.176;12.102;2023-03-16T16:58:20;8.70;99.90
36552;DHT22;22559;54.176;12.102;2023-03-16T17:00:50;8.70;99.90
36552;DHT22;22559;54.176;12.102;2023-03-16T17:03:28;8.60;99.90
36552;DHT22;22559;54.176;12.102;2023-03-16T17:05:56;8.60;99.90
36552;DHT22;22559;54.176;12.102;2023-03-16T17:08:22;8.60;99.90
36552;DHT22;22559;54.176;12.102;2023-03-16T17:10:49;8.50;99.90
36552;DHT22;22559;54.176;12.102;2023-03-16T17:13:33;8.50;99.90